Time;durP1;ratioP1;P1;durP2;ratioP2;P2;SDS_P1;SDS_P2;PMS_P1;PMS_P2;Temp;Humidity;BMP_temperature;BMP_pressure;BME280_temperature;BME280_humidity;BME280_pressure;Samples;Min_cycle;Max_cycle;Signal;HPM_P1;HPM_P2
2023/03/25 00:00:52;;;;;;;1.60;1.20;;;9.80;98.20;;;;;;5037501;28;20522;-75
2023/03/25 00:03:19;;;;;;;1.50;1.10;;;9.80;98.20;;;;;;5053699;28;21118;-74
2023/03/25 00:05:46;;;;;;;1.53;1.30;;;9.80;98.20;;;;;;5049769;28;20949;-74
2023/03/25 00:08:12;;;;;;;1.57;1.20;;;9.80;98.20;;;;;;5036412;28;20475;-75
2023/03/25 00:10:39;;;;;;;1.60;1.30;;;9.80;98.20;;;;;;5045809;28;20550;-74
2023/03/25 00:13:07;;;;;;;1.60;1.20;;;9.80;98.20;;;;;;5050222;28;21074;-75
2023/03/25 00:15:34;;;;;;;1.50;1.10;;;9.80;98.20;;;;;;5049208;28;20486;-75
2023/03/25 00:18:02;;;;;;;1.57;1.20;;;9.80;98.20;;;;;;5053858;28;20477;-75
2023/03/25 00:20:31;;;;;;;1.50;1.10;;;9.80;98.20;;;;;;5047836;28;20916;-74
2023/03/25 00:22:58;;;;;;;1.60;1.20;;;9.80;98.20;;;;;;5051579;28;21003;-74
2023/03/25 00:25:25;;;;;;;1.60;1.20;;;9.80;98.20;;;;;;5045885;28;20451;-75
2023/03/25 00:27:51;;;;;;;1.60;1.20;;;9.80;98.20;;;;;;5053861;28;20472;-76
2023/03/25 00:30:19;;;;;;;1.60;1.20;;;9.80;98.20;;;;;;5048939;28;20470;-75
2023/03/25 00:32:48;;;;;;;1.57;1.20;;;9.80;98.20;;;;;;5051788;28;20483;-76
2023/03/25 00:35:18;;;;;;;1.50;1.20;;;9.80;98.20;;;;;;5049067;28;20550;-75
2023/03/25 00:37:46;;;;;;;1.60;1.20;;;9.80;98.20;;;;;;5053679;28;20486;-77
2023/03/25 00:40:13;;;;;;;1.60;1.30;;;9.90;98.20;;;;;;5048939;28;20501;-74
2023/03/25 00:42:43;;;;;;;1.50;1.20;;;9.90;98.20;;;;;;5045526;28;20573;-75
2023/03/25 00:45:11;;;;;;;1.50;1.10;;;9.90;98.20;;;;;;5044645;28;20458;-74
2023/03/25 00:47:38;;;;;;;1.50;1.10;;;9.90;98.20;;;;;;5051798;28;20477;-74
2023/03/25 00:50:06;;;;;;;1.50;1.10;;;9.90;98.20;;;;;;5044076;28;20545;-76
2023/03/25 00:52:34;;;;;;;1.53;1.20;;;10.00;98.20;;;;;;5050101;28;20473;-74
2023/03/25 00:55:01;;;;;;;1.50;1.10;;;10.00;98.20;;;;;;5047195;28;20575;-74
2023/03/25 00:57:28;;;;;;;1.53;1.13;;;10.00;98.20;;;;;;5049597;28;20473;-75
2023/03/25 00:59:55;;;;;;;1.57;1.20;;;10.00;98.20;;;;;;5050866;28;20505;-75
2023/03/25 01:02:23;;;;;;;1.60;1.20;;;10.00;98.20;;;;;;5047187;28;20474;-75
2023/03/25 01:04:50;;;;;;;1.53;1.10;;;10.00;98.20;;;;;;5049872;28;21228;-75
2023/03/25 01:07:19;;;;;;;1.57;1.20;;;10.00;98.20;;;;;;5049718;28;20481;-76
2023/03/25 01:09:47;;;;;;;1.97;1.83;;;10.00;98.20;;;;;;5052217;28;20454;-76
2023/03/25 01:12:15;;;;;;;1.60;1.20;;;10.00;98.20;;;;;;5046148;28;20855;-74
2023/03/25 01:14:43;;;;;;;1.57;1.20;;;10.00;98.20;;;;;;5053025;28;20574;-77
2023/03/25 01:17:10;;;;;;;1.50;1.23;;;10.00;98.20;;;;;;5049614;28;21030;-75
2023/03/25 01:19:37;;;;;;;1.53;1.27;;;10.00;98.20;;;;;;5053035;28;20575;-76
2023/03/25 01:22:04;;;;;;;1.53;1.20;;;10.00;98.20;;;;;;5045706;28;20486;-75
2023/03/25 01:24:31;;;;;;;1.50;1.10;;;10.00;98.20;;;;;;5052059;28;20500;-76
2023/03/25 01:26:59;;;;;;;1.60;1.30;;;10.00;98.20;;;;;;5046196;28;20500;-74
2023/03/25 01:29:26;;;;;;;1.60;1.23;;;10.00;98.20;;;;;;5050811;28;20454;-73
2023/03/25 01:31:53;;;;;;;1.57;1.23;;;10.00;98.20;;;;;;5042933;28;20569;-75
2023/03/25 01:34:20;;;;;;;1.60;1.20;;;10.00;98.20;;;;;;5054303;28;20980;-74
2023/03/25 01:36:48;;;;;;;1.57;1.20;;;10.00;98.20;;;;;;5045903;28;20484;-73
2023/03/25 01:39:17;;;;;;;1.50;1.23;;;10.00;98.20;;;;;;5055571;28;20483;-75
2023/03/25 01:41:46;;;;;;;1.53;1.10;;;10.00;98.20;;;;;;5043019;28;20488;-74
2023/03/25 01:44:46;;;;;;;1.53;1.20;;;10.00;98.20;;;;;;5055991;28;20568;-76
2023/03/25 01:47:15;;;;;;;1.50;1.17;;;10.00;98.20;;;;;;5042068;28;21173;-74
2023/03/25 01:49:44;;;;;;;1.50;1.10;;;9.90;98.20;;;;;;5052072;28;20880;-74
2023/03/25 01:52:15;;;;;;;1.50;1.10;;;9.90;98.20;;;;;;5046253;28;21059;-75
2023/03/25 01:54:43;;;;;;;1.50;1.20;;;9.90;98.20;;;;;;5050755;28;20855;-76
2023/03/25 01:57:16;;;;;;;1.60;1.20;;;9.90;98.20;;;;;;5046233;28;20546;-75
2023/03/25 01:59:43;;;;;;;1.57;1.20;;;9.90;98.20;;;;;;5053857;28;20478;-78
2023/03/25 02:02:16;;;;;;;1.60;1.30;;;9.80;98.20;;;;;;5051239;28;20477;-75
2023/03/25 02:04:57;;;;;;;1.57;1.20;;;9.80;98.20;;;;;;5050777;28;20477;-75
2023/03/25 02:07:29;;;;;;;1.57;1.20;;;9.80;98.20;;;;;;5057095;28;20500;-76
2023/03/25 02:09:59;;;;;;;1.50;1.10;;;9.80;98.20;;;;;;5057531;28;20454;-74
2023/03/25 02:12:26;;;;;;;1.50;1.20;;;9.70;98.20;;;;;;5055283;28;20476;-77
2023/03/25 02:14:53;;;;;;;1.50;1.20;;;9.70;98.20;;;;;;5056975;28;20492;-78
2023/03/25 02:17:28;;;;;;;1.50;1.10;;;9.70;98.20;;;;;;5050718;28;20560;-75
2023/03/25 02:20:46;;;;;;;29.97;5.20;;;9.70;98.20;;;;;;5057258;28;20488;-76
2023/03/25 02:23:46;;;;;;;1.50;1.20;;;9.70;98.20;;;;;;4969096;28;20480;-76
2023/03/25 02:26:58;;;;;;;1.50;1.10;;;9.70;98.20;;;;;;4987624;28;20477;-74
2023/03/25 02:29:41;;;;;;;1.50;1.20;;;9.70;98.20;;;;;;4983305;28;20512;-76
2023/03/25 02:32:19;;;;;;;1.50;1.10;;;9.70;98.20;;;;;;5030176;28;20946;-76
2023/03/25 02:35:04;;;;;;;1.50;1.20;;;9.70;98.20;;;;;;5052860;28;20486;-75
2023/03/25 02:37:57;;;;;;;1.57;1.20;;;9.70;98.20;;;;;;5041313;28;20513;-76
2023/03/25 02:40:27;;;;;;;1.53;1.10;;;9.70;98.20;;;;;;5055339;28;20482;-76
2023/03/25 02:43:01;;;;;;;1.53;1.30;;;9.70;98.20;;;;;;5041799;28;20482;-77
2023/03/25 02:45:31;;;;;;;1.53;1.13;;;9.70;98.20;;;;;;5053680;28;20462;-76
2023/03/25 02:48:02;;;;;;;1.53;1.10;;;9.70;98.20;;;;;;5040997;28;20477;-76
2023/03/25 02:50:34;;;;;;;1.60;1.27;;;9.70;98.20;;;;;;5053616;28;21040;-76
2023/03/25 02:53:07;;;;;;;1.50;1.20;;;9.60;98.20;;;;;;5037909;28;20478;-75
2023/03/25 02:55:36;;;;;;;1.50;1.20;;;9.60;98.20;;;;;;5042350;28;20459;-75
2023/03/25 02:58:26;;;;;;;1.53;1.20;;;9.70;98.20;;;;;;5048719;28;20566;-74
2023/03/25 03:00:57;;;;;;;1.50;1.10;;;9.60;98.20;;;;;;5041518;28;20463;-77
2023/03/25 03:03:25;;;;;;;1.50;1.10;;;9.60;98.20;;;;;;5047763;28;20989;-76
2023/03/25 03:05:56;;;;;;;1.57;1.20;;;9.60;98.20;;;;;;5042875;28;20485;-75
2023/03/25 03:08:50;;;;;;;1.57;1.10;;;9.60;98.20;;;;;;5069173;28;20533;-75
2023/03/25 03:11:22;;;;;;;1.50;1.10;;;9.60;98.20;;;;;;5029705;28;20478;-75
2023/03/25 03:14:08;;;;;;;1.50;1.10;;;9.70;98.20;;;;;;5060123;28;20481;-77
2023/03/25 03:16:44;;;;;;;1.57;1.20;;;9.70;98.20;;;;;;5059225;28;20516;-74
2023/03/25 03:19:30;;;;;;;1.50;1.20;;;9.70;98.20;;;;;;5069158;28;20477;-77
2023/03/25 03:22:02;;;;;;;1.50;1.20;;;9.70;98.20;;;;;;5059260;28;20508;-75
2023/03/25 03:24:33;;;;;;;1.57;1.20;;;9.70;98.20;;;;;;5070425;28;20607;-76
2023/03/25 03:27:08;;;;;;;1.53;1.20;;;9.70;98.20;;;;;;5058223;28;20571;-76
2023/03/25 03:29:38;;;;;;;1.53;1.20;;;9.70;98.20;;;;;;5072007;28;20461;-76
2023/03/25 03:32:10;;;;;;;1.50;1.10;;;9.70;98.20;;;;;;5054674;28;20478;-75
2023/03/25 03:34:43;;;;;;;1.50;1.10;;;9.70;98.20;;;;;;5065234;28;20511;-74
2023/03/25 03:37:13;;;;;;;1.60;1.30;;;9.70;98.20;;;;;;5050139;28;20922;-76
2023/03/25 03:39:43;;;;;;;1.50;1.20;;;9.70;98.20;;;;;;5062363;28;20481;-76
2023/03/25 03:42:17;;;;;;;1.50;1.20;;;9.70;98.20;;;;;;5059794;28;20596;-76
2023/03/25 03:44:49;;;;;;;1.50;1.10;;;9.70;98.20;;;;;;5071222;28;21011;-76
2023/03/25 03:47:19;;;;;;;1.50;1.10;;;9.70;98.20;;;;;;5060854;28;20602;-76
2023/03/25 03:49:51;;;;;;;1.50;1.20;;;9.70;98.20;;;;;;5071967;28;20456;-76
2023/03/25 03:52:24;;;;;;;1.50;1.10;;;9.60;98.20;;;;;;5059164;28;20488;-76
2023/03/25 03:54:56;;;;;;;1.50;1.20;;;9.70;98.20;;;;;;5072882;28;20481;-76
2023/03/25 03:57:26;;;;;;;1.50;1.20;;;9.70;98.20;;;;;;5059432;28;20477;-77
2023/03/25 04:00:03;;;;;;;1.57;1.20;;;9.70;98.20;;;;;;5074878;28;20546;-74
2023/03/25 04:02:38;;;;;;;1.53;1.20;;;9.70;98.20;;;;;;5060093;28;20542;-76
2023/03/25 04:05:07;;;;;;;1.60;1.30;;;9.60;98.20;;;;;;5067042;28;20845;-75
2023/03/25 04:07:39;;;;;;;1.60;1.30;;;9.70;98.20;;;;;;5061882;28;20478;-77
2023/03/25 04:10:14;;;;;;;1.53;1.30;;;9.70;98.20;;;;;;5068717;28;20459;-75
2023/03/25 04:12:45;;;;;;;1.50;1.10;;;9.70;98.20;;;;;;5050510;28;20925;-77
2023/03/25 04:15:14;;;;;;;1.53;1.10;;;9.70;98.20;;;;;;5073004;28;20523;-74
2023/03/25 04:17:41;;;;;;;1.53;1.20;;;9.70;98.20;;;;;;5060392;28;20524;-76
2023/03/25 04:20:13;;;;;;;1.53;1.20;;;9.60;98.20;;;;;;5072268;28;20596;-74
2023/03/25 04:22:44;;;;;;;1.50;1.10;;;9.60;98.20;;;;;;5058808;28;20489;-73
2023/03/25 04:25:13;;;;;;;1.53;1.20;;;9.60;98.20;;;;;;5070026;28;20474;-75
2023/03/25 04:27:47;;;;;;;1.57;1.20;;;9.60;98.20;;;;;;5059117;28;20482;-78
2023/03/25 04:30:16;;;;;;;1.57;1.20;;;9.60;98.20;;;;;;5072647;28;20987;-76
2023/03/25 04:32:45;;;;;;;1.57;1.20;;;9.60;98.20;;;;;;5047442;28;21179;-76
2023/03/25 04:35:12;;;;;;;1.50;1.10;;;9.60;98.20;;;;;;5072623;28;20533;-77
2023/03/25 04:37:40;;;;;;;1.50;1.10;;;9.60;98.20;;;;;;5057616;28;20486;-76
2023/03/25 04:40:08;;;;;;;1.57;1.10;;;9.60;98.20;;;;;;5064349;28;20497;-76
2023/03/25 04:42:36;;;;;;;1.50;1.10;;;9.60;98.20;;;;;;5057069;28;20496;-74
2023/03/25 04:45:04;;;;;;;1.60;1.30;;;9.60;98.20;;;;;;5069818;28;20529;-74
2023/03/25 04:47:32;;;;;;;1.60;1.30;;;9.60;98.20;;;;;;5057522;28;20473;-74
2023/03/25 04:49:59;;;;;;;1.60;1.20;;;9.60;98.20;;;;;;5063344;28;20540;-73
2023/03/25 04:52:26;;;;;;;1.50;1.10;;;9.60;98.20;;;;;;5048856;28;20976;-74
2023/03/25 04:54:52;;;;;;;1.60;1.27;;;9.60;98.20;;;;;;5065441;28;20608;-74
2023/03/25 04:57:20;;;;;;;1.53;1.10;;;9.60;98.20;;;;;;5053950;28;20524;-74
2023/03/25 04:59:48;;;;;;;1.60;1.30;;;9.60;98.20;;;;;;5063480;28;20754;-74
2023/03/25 05:02:17;;;;;;;1.50;1.20;;;9.60;98.20;;;;;;5042058;28;20482;-73
2023/03/25 05:04:46;;;;;;;1.53;1.10;;;9.60;98.20;;;;;;5054216;28;20477;-74
2023/03/25 05:07:12;;;;;;;1.50;1.20;;;9.60;98.20;;;;;;5047268;28;20481;-74
2023/03/25 05:09:39;;;;;;;1.50;1.20;;;9.70;98.20;;;;;;5065914;28;20553;-73
2023/03/25 05:12:10;;;;;;;1.57;1.20;;;9.60;98.20;;;;;;5043178;28;20477;-73
2023/03/25 05:14:37;;;;;;;1.57;1.30;;;9.60;98.20;;;;;;5064073;28;20477;-74
2023/03/25 05:17:05;;;;;;;1.53;1.20;;;9.60;98.20;;;;;;5058808;28;20544;-73
2023/03/25 05:19:33;;;;;;;1.50;1.20;;;9.60;98.20;;;;;;5063939;28;20481;-74
2023/03/25 05:22:08;;;;;;;1.60;1.27;;;9.60;98.20;;;;;;5055464;28;20806;-73
2023/03/25 05:24:36;;;;;;;1.53;1.10;;;9.60;98.20;;;;;;5063255;28;20484;-73
2023/03/25 05:27:02;;;;;;;1.50;1.10;;;9.60;98.20;;;;;;5054757;28;20472;-73
2023/03/25 05:29:32;;;;;;;1.50;1.20;;;9.60;98.20;;;;;;5063705;28;20464;-73
2023/03/25 05:31:59;;;;;;;1.50;1.10;;;9.60;98.20;;;;;;5053519;28;21108;-73
2023/03/25 05:34:29;;;;;;;1.50;1.20;;;9.60;98.20;;;;;;5059450;28;20477;-72
2023/03/25 05:36:56;;;;;;;1.60;1.40;;;9.60;98.20;;;;;;5047716;28;21043;-72
2023/03/25 05:39:24;;;;;;;1.60;1.30;;;9.60;98.20;;;;;;5053180;28;20457;-72
2023/03/25 05:42:04;;;;;;;1.60;1.30;;;9.60;98.20;;;;;;5050515;28;20489;-72
2023/03/25 05:44:31;;;;;;;1.53;1.20;;;9.60;98.20;;;;;;5063117;28;20485;-73
2023/03/25 05:47:00;;;;;;;1.50;1.20;;;9.60;98.20;;;;;;5052758;28;20897;-73
2023/03/25 05:49:28;;;;;;;1.60;1.20;;;9.60;98.20;;;;;;5059013;28;20479;-73
2023/03/25 05:51:55;;;;;;;1.57;1.20;;;9.60;98.20;;;;;;5043007;28;20948;-73
2023/03/25 05:54:23;;;;;;;1.50;1.13;;;9.60;98.20;;;;;;5051151;28;20481;-73
2023/03/25 05:56:50;;;;;;;1.50;1.10;;;9.60;98.20;;;;;;5052309;28;20999;-72
2023/03/25 05:59:17;;;;;;;1.50;1.20;;;9.60;98.20;;;;;;5063021;28;20465;-73
2023/03/25 06:01:44;;;;;;;1.57;1.20;;;9.60;98.20;;;;;;5050285;28;20485;-72
2023/03/25 06:04:11;;;;;;;1.53;1.20;;;9.60;98.20;;;;;;5058369;28;20483;-73
2023/03/25 06:06:40;;;;;;;1.53;1.20;;;9.60;98.20;;;;;;5053769;28;20897;-73
2023/03/25 06:09:07;;;;;;;1.57;1.20;;;9.60;98.20;;;;;;5058965;28;21001;-73
2023/03/25 06:11:36;;;;;;;1.50;1.10;;;9.60;98.20;;;;;;5050260;28;20481;-72
2023/03/25 06:14:04;;;;;;;1.50;1.10;;;9.60;98.20;;;;;;5042586;28;21059;-73
2023/03/25 06:16:32;;;;;;;1.57;1.20;;;9.60;98.20;;;;;;5046397;28;20485;-73
2023/03/25 06:19:00;;;;;;;1.50;1.10;;;9.70;98.20;;;;;;5055950;23;20506;-74
2023/03/25 06:21:28;;;;;;;1.60;1.20;;;9.60;98.20;;;;;;5034008;28;20583;-75
2023/03/25 06:23:58;;;;;;;1.50;1.10;;;9.60;98.20;;;;;;5048971;28;20462;-78
2023/03/25 06:26:25;;;;;;;1.50;1.10;;;9.50;98.20;;;;;;5037487;28;20578;-79
2023/03/25 06:28:52;;;;;;;1.50;1.20;;;9.50;98.20;;;;;;5037505;28;20491;-77
2023/03/25 06:31:21;;;;;;;1.50;1.10;;;9.50;98.20;;;;;;5031533;28;20475;-76
2023/03/25 06:33:50;;;;;;;1.50;1.20;;;9.50;98.20;;;;;;5045435;28;20545;-75
2023/03/25 06:36:19;;;;;;;1.50;1.10;;;9.50;98.20;;;;;;5023412;28;20888;-77
2023/03/25 06:38:48;;;;;;;1.53;1.20;;;9.40;98.20;;;;;;5020259;28;20905;-77
2023/03/25 06:41:19;;;;;;;1.50;1.10;;;9.40;98.20;;;;;;5010624;28;20480;-75
2023/03/25 06:43:46;;;;;;;1.50;1.10;;;9.40;98.20;;;;;;5023010;28;20455;-75
2023/03/25 06:46:13;;;;;;;1.50;1.30;;;9.40;98.20;;;;;;5012240;28;20483;-75
2023/03/25 06:48:40;;;;;;;1.50;1.20;;;9.40;98.20;;;;;;5006819;28;20585;-76
2023/03/25 06:51:07;;;;;;;1.57;1.23;;;9.40;98.20;;;;;;5012917;28;20484;-75
2023/03/25 06:53:34;;;;;;;1.50;1.17;;;9.40;98.20;;;;;;5022464;28;21127;-75
2023/03/25 06:56:01;;;;;;;1.50;1.10;;;9.40;98.20;;;;;;5009710;28;20455;-76
2023/03/25 06:58:33;;;;;;;1.50;1.10;;;9.40;98.20;;;;;;5022172;28;20889;-75
2023/03/25 07:01:02;;;;;;;1.50;1.20;;;9.40;98.20;;;;;;5006537;28;20578;-76
2023/03/25 07:03:29;;;;;;;1.50;1.10;;;9.40;98.20;;;;;;5021869;28;20459;-76
2023/03/25 07:05:56;;;;;;;1.50;1.10;;;9.40;98.20;;;;;;5014671;28;20487;-75
2023/03/25 07:08:23;;;;;;;1.50;1.10;;;9.50;98.20;;;;;;5040073;28;20846;-76
2023/03/25 07:10:50;;;;;;;1.57;1.20;;;9.50;98.20;;;;;;5016446;28;20601;-75
2023/03/25 07:13:16;;;;;;;1.50;1.10;;;9.50;98.20;;;;;;5004118;28;20459;-77
2023/03/25 07:15:45;;;;;;;1.50;1.20;;;9.50;98.20;;;;;;5025057;28;20841;-78
2023/03/25 07:18:11;;;;;;;1.50;1.20;;;9.60;98.20;;;;;;5013461;28;20491;-76
2023/03/25 07:20:38;;;;;;;1.60;1.20;;;9.60;98.20;;;;;;5017158;28;20502;-76
2023/03/25 07:23:05;;;;;;;1.50;1.27;;;9.70;98.20;;;;;;4988957;28;20853;-76
2023/03/25 07:25:31;;;;;;;1.50;1.20;;;9.80;98.20;;;;;;5022181;28;20467;-77
2023/03/25 07:27:58;;;;;;;1.50;1.20;;;9.90;98.20;;;;;;5012616;28;21072;-77
2023/03/25 07:30:25;;;;;;;1.50;1.20;;;10.00;98.20;;;;;;5020858;28;20470;-78
2023/03/25 07:32:53;;;;;;;1.50;1.10;;;10.00;98.20;;;;;;4988479;28;20488;-77
2023/03/25 07:35:20;;;;;;;1.50;1.10;;;10.10;98.20;;;;;;5026036;28;20459;-80
2023/03/25 07:37:47;;;;;;;1.57;1.10;;;10.10;98.20;;;;;;5029002;28;20679;-78
2023/03/25 07:40:14;;;;;;;1.50;1.10;;;10.10;98.20;;;;;;5029275;28;20528;-80
2023/03/25 07:42:41;;;;;;;1.50;1.13;;;10.20;98.20;;;;;;5030400;28;20980;-78
2023/03/25 07:45:08;;;;;;;1.60;1.20;;;10.20;98.20;;;;;;5027722;28;20462;-79
2023/03/25 07:47:35;;;;;;;1.53;1.10;;;10.20;98.20;;;;;;4994968;28;20517;-80
2023/03/25 07:50:03;;;;;;;1.60;1.20;;;10.30;98.20;;;;;;5017723;28;20467;-78
2023/03/25 07:52:30;;;;;;;1.57;1.10;;;10.30;98.20;;;;;;5012201;28;20483;-78
2023/03/25 07:54:59;;;;;;;1.60;1.20;;;10.30;98.20;;;;;;5025704;28;20467;-78
2023/03/25 07:57:26;;;;;;;1.57;1.20;;;10.40;98.20;;;;;;5012650;28;20479;-78
2023/03/25 07:59:52;;;;;;;1.53;1.10;;;10.40;98.20;;;;;;5037083;28;20463;-79
2023/03/25 08:02:19;;;;;;;1.53;1.10;;;10.40;98.20;;;;;;5021764;28;20490;-78
2023/03/25 08:04:46;;;;;;;1.53;1.10;;;10.40;98.20;;;;;;5031998;28;20470;-77
2023/03/25 08:07:15;;;;;;;1.57;1.20;;;10.40;98.20;;;;;;5025840;28;20475;-78
2023/03/25 08:09:42;;;;;;;1.53;1.10;;;10.40;98.20;;;;;;5035729;28;20459;-78
2023/03/25 08:12:09;;;;;;;2.07;1.87;;;10.50;98.20;;;;;;5019821;28;21133;-78
2023/03/25 08:14:35;;;;;;;1.50;1.00;;;10.60;98.20;;;;;;5031024;28;20467;-78
2023/03/25 08:17:04;;;;;;;1.57;1.10;;;10.70;98.20;;;;;;5019168;28;20483;-79
2023/03/25 08:19:31;;;;;;;1.53;1.10;;;10.90;98.20;;;;;;5031003;28;20795;-78
2023/03/25 08:21:57;;;;;;;1.50;1.00;;;10.90;98.20;;;;;;5023544;28;20482;-78
2023/03/25 08:24:28;;;;;;;1.50;1.10;;;11.00;98.20;;;;;;5043143;28;20458;-79
2023/03/25 08:26:59;;;;;;;1.60;1.20;;;11.00;98.20;;;;;;5012658;28;20564;-77
2023/03/25 08:29:26;;;;;;;1.60;1.20;;;11.20;98.20;;;;;;5015823;28;20483;-78
2023/03/25 08:31:53;;;;;;;1.60;1.10;;;11.20;98.20;;;;;;5000991;28;20916;-78
2023/03/25 08:34:22;;;;;;;1.60;1.20;;;11.30;98.20;;;;;;5010447;28;20473;-78
2023/03/25 08:36:49;;;;;;;1.60;1.20;;;11.30;98.20;;;;;;5019729;28;20533;-77
2023/03/25 08:39:16;;;;;;;1.53;1.13;;;11.20;98.20;;;;;;5039195;28;20486;-77
2023/03/25 08:41:44;;;;;;;1.60;1.13;;;11.20;98.20;;;;;;5030960;28;20556;-78
2023/03/25 08:44:12;;;;;;;1.57;1.10;;;11.30;98.20;;;;;;5041626;28;20466;-77
2023/03/25 08:46:38;;;;;;;1.53;1.10;;;11.30;98.20;;;;;;5031442;28;20493;-77
2023/03/25 08:49:06;;;;;;;1.50;1.00;;;11.30;98.20;;;;;;5040200;28;20493;-78
2023/03/25 08:51:33;;;;;;;1.60;1.17;;;11.30;98.20;;;;;;5023828;28;20478;-77
2023/03/25 08:54:00;;;;;;;1.53;1.20;;;11.20;98.20;;;;;;5038301;28;20466;-78
2023/03/25 08:56:26;;;;;;;1.50;1.10;;;11.20;98.20;;;;;;5029359;28;21019;-78
2023/03/25 08:58:54;;;;;;;1.53;1.10;;;11.20;98.20;;;;;;5036281;28;20489;-80
2023/03/25 09:01:23;;;;;;;2.30;2.10;;;11.20;98.20;;;;;;5019455;28;21512;-77
2023/03/25 09:03:50;;;;;;;1.57;1.20;;;11.30;98.20;;;;;;5018168;28;20458;-79
2023/03/25 09:06:17;;;;;;;1.50;1.10;;;11.40;98.20;;;;;;5021758;28;20517;-79
2023/03/25 09:08:43;;;;;;;1.50;1.10;;;11.40;98.20;;;;;;5020675;28;21143;-78
2023/03/25 09:11:11;;;;;;;1.57;1.10;;;11.50;98.20;;;;;;5019438;28;20479;-79
2023/03/25 09:13:38;;;;;;;1.57;1.10;;;11.60;98.20;;;;;;5015980;28;21062;-77
2023/03/25 09:16:08;;;;;;;1.50;1.03;;;11.70;98.20;;;;;;5026234;28;20470;-79
2023/03/25 09:18:35;;;;;;;1.50;1.10;;;11.90;98.20;;;;;;5029862;28;20494;-79
2023/03/25 09:21:02;;;;;;;1.53;1.10;;;12.10;98.20;;;;;;5025715;28;20482;-78
2023/03/25 09:23:29;;;;;;;1.50;1.03;;;12.10;98.20;;;;;;5030821;28;20992;-78
2023/03/25 09:26:00;;;;;;;1.50;1.10;;;12.10;98.20;;;;;;5027276;28;20458;-78
2023/03/25 09:28:27;;;;;;;1.53;1.00;;;12.10;98.20;;;;;;5033623;28;21125;-80
2023/03/25 09:30:55;;;;;;;1.57;1.20;;;12.10;98.20;;;;;;5026028;28;20465;-78
2023/03/25 09:33:23;;;;;;;1.57;1.20;;;12.10;98.20;;;;;;5015741;28;20462;-80
2023/03/25 09:35:50;;;;;;;1.50;1.10;;;12.10;98.20;;;;;;5028331;28;20465;-79
2023/03/25 09:38:16;;;;;;;1.50;1.20;;;12.20;98.20;;;;;;5038498;28;20514;-79
2023/03/25 09:40:44;;;;;;;1.50;1.00;;;12.30;98.20;;;;;;5039786;28;20658;-79
2023/03/25 09:43:40;;;;;;;1.50;1.00;;;12.30;98.20;;;;;;5015097;28;20486;-78
2023/03/25 09:46:08;;;;;;;1.50;1.10;;;12.40;98.20;;;;;;5026769;28;20476;-77
2023/03/25 09:48:38;;;;;;;1.50;1.10;;;12.50;98.20;;;;;;5032818;28;20486;-77
2023/03/25 09:51:08;;;;;;;1.50;1.10;;;12.40;98.20;;;;;;5024768;28;20533;-78
2023/03/25 09:53:39;;;;;;;1.50;1.00;;;12.40;98.20;;;;;;5000219;28;21103;-78
2023/03/25 09:56:10;;;;;;;1.50;1.00;;;12.40;98.20;;;;;;5026161;28;20505;-78
2023/03/25 09:58:42;;;;;;;1.50;1.00;;;12.40;98.20;;;;;;5035855;28;20493;-79
2023/03/25 10:01:25;;;;;;;1.60;1.20;;;12.40;98.20;;;;;;5022889;28;20490;-78
2023/03/25 10:04:01;;;;;;;1.50;1.20;;;12.40;98.20;;;;;;5018022;28;20462;-77
2023/03/25 10:06:29;;;;;;;1.50;1.10;;;12.40;98.20;;;;;;5026073;28;20482;-78
2023/03/25 10:09:18;;;;;;;1.60;1.27;;;12.40;98.20;;;;;;5036081;28;20490;-78
2023/03/25 10:11:52;;;;;;;1.50;1.10;;;12.40;98.20;;;;;;5024698;28;20585;-78
2023/03/25 10:14:26;;;;;;;1.50;1.10;;;12.40;98.20;;;;;;5034119;28;20836;-77
2023/03/25 10:17:02;;;;;;;1.50;1.10;;;12.40;98.20;;;;;;5025278;28;20478;-77
2023/03/25 10:19:49;;;;;;;1.50;1.10;;;12.50;98.20;;;;;;5035768;28;21097;-77
2023/03/25 10:22:18;;;;;;;1.50;1.00;;;12.50;98.20;;;;;;5025393;28;20492;-78
2023/03/25 10:24:49;;;;;;;1.50;1.00;;;12.50;98.20;;;;;;5039321;28;20470;-77
2023/03/25 10:27:22;;;;;;;1.50;1.10;;;12.40;98.20;;;;;;5013757;28;20483;-77
2023/03/25 10:29:53;;;;;;;1.50;1.00;;;12.40;98.20;;;;;;5036110;28;20479;-77
2023/03/25 10:32:31;;;;;;;1.50;1.00;;;12.40;98.20;;;;;;5027289;28;20489;-78
2023/03/25 10:35:04;;;;;;;1.50;1.00;;;12.50;98.20;;;;;;5037056;28;20960;-77
2023/03/25 10:37:34;;;;;;;1.50;1.00;;;12.60;98.20;;;;;;5028257;28;20695;-77
2023/03/25 10:40:15;;;;;;;1.50;1.10;;;12.70;98.20;;;;;;5038349;28;20462;-78
2023/03/25 10:42:54;;;;;;;1.50;1.10;;;12.70;98.20;;;;;;5019349;28;21088;-77
2023/03/25 10:45:23;;;;;;;1.50;1.10;;;12.60;98.20;;;;;;5039816;28;20712;-77
2023/03/25 10:47:54;;;;;;;1.50;1.10;;;12.60;98.20;;;;;;5027917;28;20492;-77
2023/03/25 10:50:22;;;;;;;1.50;1.10;;;12.50;98.20;;;;;;5038054;28;20477;-76
2023/03/25 10:52:51;;;;;;;1.50;1.00;;;12.50;98.20;;;;;;5006571;28;20494;-77
2023/03/25 10:55:24;;;;;;;1.63;1.30;;;12.40;98.20;;;;;;5036782;28;20462;-77
2023/03/25 10:57:52;;;;;;;1.50;1.00;;;12.40;98.20;;;;;;5028677;28;20485;-77
2023/03/25 11:00:22;;;;;;;1.50;1.00;;;12.50;98.20;;;;;;5040056;28;20454;-79
2023/03/25 11:02:50;;;;;;;1.50;1.10;;;12.60;98.20;;;;;;5006320;28;20494;-77
2023/03/25 11:05:20;;;;;;;1.50;1.00;;;12.70;98.20;;;;;;5036074;28;20582;-77
2023/03/25 11:07:51;;;;;;;1.50;1.00;;;12.70;98.20;;;;;;5027021;28;20485;-77
2023/03/25 11:10:22;;;;;;;1.50;1.10;;;12.80;98.20;;;;;;5040802;28;20463;-78
2023/03/25 11:12:50;;;;;;;1.50;1.10;;;13.00;98.20;;;;;;5028856;28;20790;-77
2023/03/25 11:15:21;;;;;;;1.50;1.00;;;13.30;98.20;;;;;;5040803;28;20463;-78
2023/03/25 11:17:58;;;;;;;1.50;1.10;;;13.40;97.10;;;;;;5028901;28;20963;-77
2023/03/25 11:20:30;;;;;;;1.50;1.20;;;13.40;96.20;;;;;;5038617;28;20473;-77
2023/03/25 11:23:05;;;;;;;1.50;1.10;;;13.30;96.40;;;;;;5024312;28;20471;-77
2023/03/25 11:25:38;;;;;;;1.50;1.00;;;13.30;97.30;;;;;;5039420;28;20871;-77
2023/03/25 11:28:11;;;;;;;1.50;1.00;;;13.40;97.80;;;;;;5020388;28;20579;-76
2023/03/25 11:31:12;;;;;;;1.70;1.60;;;13.40;98.10;;;;;;5037787;28;20481;-76
2023/03/25 11:33:40;;;;;;;1.50;1.00;;;13.30;98.20;;;;;;5021695;28;20699;-78
2023/03/25 11:36:27;;;;;;;1.50;1.10;;;13.30;98.10;;;;;;5026267;28;20514;-77
2023/03/25 11:39:00;;;;;;;1.50;1.10;;;13.20;98.20;;;;;;5025472;28;20492;-77
2023/03/25 11:41:32;;;;;;;1.50;1.10;;;13.20;98.20;;;;;;5026553;28;20508;-78
2023/03/25 11:43:59;;;;;;;1.50;1.10;;;13.20;98.20;;;;;;5035020;28;21129;-77
2023/03/25 11:46:26;;;;;;;1.50;1.00;;;13.20;98.20;;;;;;5027676;28;21008;-77
2023/03/25 11:48:53;;;;;;;1.50;1.10;;;13.10;98.20;;;;;;5037816;28;20497;-76
2023/03/25 11:51:23;;;;;;;1.50;1.00;;;12.90;98.20;;;;;;5028001;28;20482;-77
2023/03/25 11:53:56;;;;;;;1.50;1.20;;;12.80;98.20;;;;;;5036776;28;20992;-77
2023/03/25 11:56:29;;;;;;;1.50;1.00;;;12.80;98.20;;;;;;5021699;28;20484;-77
2023/03/25 11:58:59;;;;;;;1.50;1.00;;;12.80;98.20;;;;;;5025159;28;20482;-76
2023/03/25 12:01:29;;;;;;;1.50;1.10;;;12.90;98.20;;;;;;5026384;28;20497;-77
2023/03/25 12:04:08;;;;;;;1.50;1.00;;;12.90;98.20;;;;;;5036338;28;20462;-76
2023/03/25 12:06:35;;;;;;;1.50;1.10;;;12.90;98.20;;;;;;5020755;28;20628;-77
2023/03/25 12:09:09;;;;;;;1.60;1.30;;;12.70;98.20;;;;;;5033238;28;20486;-75
2023/03/25 12:11:45;;;;;;;1.50;1.00;;;12.60;98.20;;;;;;5023744;28;20489;-77
2023/03/25 12:14:25;;;;;;;1.50;1.10;;;12.40;98.20;;;;;;5032135;28;20458;-79
2023/03/25 12:17:01;;;;;;;1.50;1.00;;;12.20;98.20;;;;;;5029419;28;20477;-77
2023/03/25 12:19:39;;;;;;;1.50;1.10;;;12.10;98.20;;;;;;5040622;28;20504;-76
2023/03/25 12:22:17;;;;;;;1.50;1.00;;;12.00;98.20;;;;;;5012335;28;20978;-79
2023/03/25 12:25:08;;;;;;;1.50;1.10;;;11.90;98.20;;;;;;5034854;28;20458;-77
2023/03/25 12:27:48;;;;;;;1.50;1.10;;;12.00;98.20;;;;;;5008885;28;20495;-77
2023/03/25 12:30:29;;;;;;;1.50;1.10;;;12.00;98.20;;;;;;5019965;28;20539;-75
2023/03/25 12:33:05;;;;;;;1.60;1.43;;;12.10;98.20;;;;;;5014941;28;20715;-76
2023/03/25 12:35:40;;;;;;;1.50;1.10;;;12.30;98.20;;;;;;5038002;28;20468;-76
2023/03/25 12:38:31;;;;;;;1.50;1.10;;;12.50;98.20;;;;;;5002115;28;20981;-76
2023/03/25 12:41:18;;;;;;;1.50;1.00;;;12.60;98.20;;;;;;5008855;28;20489;-77
2023/03/25 12:43:58;;;;;;;1.50;1.00;;;12.70;98.20;;;;;;5028813;28;20539;-78
2023/03/25 12:46:44;;;;;;;1.50;1.00;;;13.10;98.20;;;;;;5029155;28;20485;-77
2023/03/25 12:49:28;;;;;;;1.50;1.03;;;13.50;98.20;;;;;;5032965;28;20482;-77
2023/03/25 12:52:02;;;;;;;1.50;1.00;;;13.90;98.20;;;;;;5025165;28;21128;-76
2023/03/25 12:54:43;;;;;;;1.50;1.00;;;14.10;98.20;;;;;;5037408;28;20469;-77
2023/03/25 12:57:24;;;;;;;1.50;1.00;;;14.20;98.20;;;;;;5028750;28;20478;-77
2023/03/25 13:00:29;;;;;;;1.50;1.10;;;14.30;98.20;;;;;;5037874;28;20458;-77
2023/03/25 13:03:27;;;;;;;1.50;1.00;;;14.70;97.80;;;;;;5002424;28;20510;-76
2023/03/25 13:06:00;;;;;;;1.50;0.97;;;14.80;94.90;;;;;;5027733;28;20454;-78
2023/03/25 13:08:32;;;;;;;1.50;0.90;;;14.80;95.80;;;;;;5018733;28;21093;-78
2023/03/25 13:11:06;;;;;;;1.50;1.00;;;14.70;94.00;;;;;;5021594;28;20632;-78
2023/03/25 13:13:36;;;;;;;1.50;1.00;;;14.40;94.10;;;;;;5025297;28;20465;-76